Time;durP1;ratioP1;P1;durP2;ratioP2;P2;SDS_P1;SDS_P2;PMS_P1;PMS_P2;Temp;Humidity;BMP_temperature;BMP_pressure;BME280_temperature;BME280_humidity;BME280_pressure;Samples;Min_cycle;Max_cycle;Signal;HPM_P1;HPM_P2
2022/08/22 00:01:32;;;;;;;43.00;8.83;;;;;;;18.19;100.00;99744.42;1708614;83;21068;-68
2022/08/22 00:04:07;;;;;;;39.63;7.42;;;;;;;18.18;100.00;99750.25;1708694;82;21001;-69
2022/08/22 00:06:50;;;;;;;43.40;7.30;;;;;;;18.18;100.00;99746.25;1708546;83;21150;-69
2022/08/22 00:09:41;;;;;;;43.95;8.48;;;;;;;18.19;100.00;99743.09;1708587;84;21061;-69
2022/08/22 00:12:27;;;;;;;45.28;8.15;;;;;;;18.18;100.00;99744.08;1736216;82;21057;-69
2022/08/22 00:15:15;;;;;;;40.48;8.08;;;;;;;18.16;100.00;99738.84;1741036;81;21565;-68
2022/08/22 00:17:50;;;;;;;35.73;7.83;;;;;;;18.14;100.00;99734.11;1740977;82;21108;-67
2022/08/22 00:20:25;;;;;;;40.55;8.50;;;;;;;18.13;100.00;99741.75;1741525;82;21109;-70
2022/08/22 00:23:04;;;;;;;35.15;8.58;;;;;;;18.13;100.00;99732.88;1741083;82;21007;-69
2022/08/22 00:25:40;;;;;;;39.35;7.87;;;;;;;18.11;100.00;99737.02;1740857;82;21113;-69
2022/08/22 00:28:33;;;;;;;38.50;6.87;;;;;;;18.09;100.00;99745.61;1741236;82;21062;-69
2022/08/22 00:31:32;;;;;;;37.03;7.72;;;;;;;18.07;100.00;99747.53;1741017;82;21045;-68
2022/08/22 00:34:31;;;;;;;43.05;7.97;;;;;;;18.08;100.00;99739.89;1716252;82;22162;-68
2022/08/22 00:37:06;;;;;;;33.95;7.42;;;;;;;18.05;100.00;99744.13;1741080;82;21049;-68
2022/08/22 00:40:03;;;;;;;42.17;7.58;;;;;;;18.03;100.00;99739.39;1741299;82;21127;-68
2022/08/22 00:42:50;;;;;;;33.90;8.50;;;;;;;17.98;100.00;99740.22;1741217;82;21038;-69
2022/08/22 00:45:37;;;;;;;33.20;7.37;;;;;;;17.92;100.00;99740.20;1741274;82;21022;-68
2022/08/22 00:48:38;;;;;;;39.13;6.90;;;;;;;17.86;100.00;99745.12;1741134;82;21250;-68
2022/08/22 00:51:40;;;;;;;49.55;7.25;;;;;;;17.80;100.00;99743.23;1741065;82;21077;-69
2022/08/22 00:54:29;;;;;;;33.67;6.80;;;;;;;17.77;100.00;99739.95;1749337;81;21057;-69
2022/08/22 00:57:20;;;;;;;33.67;6.83;;;;;;;17.73;100.00;99751.30;1756435;81;21080;-69
2022/08/22 01:00:16;;;;;;;41.25;7.42;;;;;;;17.68;100.00;99746.80;1756111;81;21479;-68
2022/08/22 01:03:18;;;;;;;32.48;6.37;;;;;;;17.64;100.00;99758.63;1725931;82;21203;-70
2022/08/22 01:06:15;;;;;;;45.95;7.03;;;;;;;17.63;100.00;99751.61;1725474;83;22228;-69
2022/08/22 01:09:03;;;;;;;31.10;7.28;;;;;;;17.60;100.00;99754.50;1725913;83;21081;-69
2022/08/22 01:12:00;;;;;;;36.88;7.08;;;;;;;17.53;100.00;99757.21;1719971;83;21121;-68
2022/08/22 01:14:47;;;;;;;32.30;6.55;;;;;;;17.49;100.00;99762.41;1712832;83;21589;-69
2022/08/22 01:17:50;;;;;;;33.42;6.37;;;;;;;17.42;100.00;99750.02;1713094;83;21604;-67
2022/08/22 01:21:00;;;;;;;35.73;7.12;;;;;;;17.37;100.00;99756.16;1687194;83;21054;-68
2022/08/22 01:24:18;;;;;;;30.97;5.25;;;;;;;17.31;100.00;99750.77;1713246;83;21158;-70
2022/08/22 01:27:34;;;;;;;31.90;6.67;;;;;;;17.27;100.00;99757.27;1733685;82;21053;-68
2022/08/22 01:30:12;;;;;;;35.80;7.50;;;;;;;17.20;100.00;99750.19;1742516;82;21010;-67
2022/08/22 01:33:08;;;;;;;35.03;6.92;;;;;;;17.18;100.00;99753.92;1742116;82;21161;-67
2022/08/22 01:36:23;;;;;;;40.48;6.42;;;;;;;17.13;100.00;99749.41;1742555;82;21022;-67
2022/08/22 01:39:11;;;;;;;34.15;6.58;;;;;;;17.07;100.00;99752.03;1741554;82;21006;-70
2022/08/22 01:42:12;;;;;;;36.40;6.47;;;;;;;17.02;100.00;99757.29;1713152;82;21006;-69
2022/08/22 01:45:13;;;;;;;33.03;7.77;;;;;;;16.97;100.00;99757.13;1743280;82;21068;-68
2022/08/22 01:48:06;;;;;;;;;;;;;;;16.94;100.00;99753.84;1745469;82;21980;-68
2022/08/22 01:50:38;;;;;;;33.78;6.35;;;;;;;16.90;100.00;99755.84;1742465;82;20194;-68
2022/08/22 01:53:13;;;;;;;33.30;6.47;;;;;;;16.87;100.00;99762.72;1742345;82;21025;-69
2022/08/22 01:56:01;;;;;;;24.43;7.10;;;;;;;16.82;100.00;99763.52;1742741;82;21087;-68
2022/08/22 01:58:31;;;;;;;26.90;6.72;;;;;;;16.80;100.00;99774.73;1734348;82;21085;-68
2022/08/22 02:01:03;;;;;;;28.47;7.33;;;;;;;16.79;100.00;99759.72;1742558;80;21618;-68
2022/08/22 02:03:40;;;;;;;32.78;7.35;;;;;;;16.77;100.00;99757.61;1742774;82;21056;-68
2022/08/22 02:06:15;;;;;;;28.77;6.83;;;;;;;16.77;100.00;99756.28;1742520;82;21550;-68
2022/08/22 02:09:11;;;;;;;33.98;7.03;;;;;;;16.74;100.00;99760.49;1742826;82;21029;-68
2022/08/22 02:12:15;;;;;;;32.10;6.58;;;;;;;16.73;100.00;99768.11;1742911;82;21079;-68
2022/08/22 02:14:47;;;;;;;29.05;6.62;;;;;;;16.68;100.00;99766.22;1742623;82;21181;-67
2022/08/22 02:17:28;;;;;;;30.95;7.62;;;;;;;16.66;100.00;99762.84;1721763;82;21602;-69
2022/08/22 02:20:06;;;;;;;27.55;6.53;;;;;;;16.65;100.00;99765.11;1743128;82;21006;-68
2022/08/22 02:23:13;;;;;;;27.50;7.12;;;;;;;16.63;100.00;99765.69;1742689;82;21064;-68
2022/08/22 02:25:57;;;;;;;22.55;6.33;;;;;;;16.62;100.00;99770.64;1742617;82;21173;-69
2022/08/22 02:28:50;;;;;;;30.68;7.22;;;;;;;16.58;100.00;99776.15;1741693;82;21142;-68
2022/08/22 02:31:24;;;;;;;27.40;7.08;;;;;;;16.56;100.00;99772.77;1742723;82;21609;-68
2022/08/22 02:33:55;;;;;;;31.15;6.55;;;;;;;16.55;100.00;99771.53;1741839;82;21072;-68
2022/08/22 02:36:40;;;;;;;;;;;;;;;16.52;100.00;99771.27;1745103;82;21628;-68
2022/08/22 02:39:33;;;;;;;32.20;6.95;;;;;;;16.50;100.00;99766.53;1741584;82;21003;-67
2022/08/22 02:42:27;;;;;;;28.25;6.50;;;;;;;16.46;100.00;99767.68;1742486;82;21732;-68
2022/08/22 02:45:25;;;;;;;17.73;6.08;;;;;;;16.45;100.00;99773.97;1742674;82;21025;-68
2022/08/22 02:48:20;;;;;;;27.52;6.75;;;;;;;16.41;100.00;99774.28;1742974;82;21620;-68
2022/08/22 02:51:00;;;;;;;25.97;6.67;;;;;;;16.40;100.00;99780.05;1742409;82;21061;-68
2022/08/22 02:53:47;;;;;;;20.57;6.08;;;;;;;16.39;100.00;99782.34;1742730;82;21065;-69
2022/08/22 02:56:40;;;;;;;32.53;6.33;;;;;;;16.35;100.00;99780.34;1742628;82;22276;-68
2022/08/22 02:59:35;;;;;;;24.75;6.83;;;;;;;16.35;100.00;99782.16;1712507;82;21105;-68
2022/08/22 03:02:30;;;;;;;34.83;7.28;;;;;;;16.29;100.00;99790.08;1717940;82;21065;-69
2022/08/22 03:05:01;;;;;;;24.52;6.05;;;;;;;16.28;100.00;99795.48;1742676;82;21080;-69
2022/08/22 03:07:39;;;;;;;30.15;7.45;;;;;;;16.27;100.00;99799.11;1742439;82;21041;-68
2022/08/22 03:10:24;;;;;;;24.30;6.92;;;;;;;16.27;100.00;99799.95;1743013;82;21099;-67
2022/08/22 03:13:15;;;;;;;26.02;6.37;;;;;;;16.25;100.00;99792.55;1721499;82;21097;-68
2022/08/22 03:16:18;;;;;;;18.17;5.07;;;;;;;16.23;100.00;99789.14;1743038;82;21065;-68
2022/08/22 03:19:18;;;;;;;17.02;5.50;;;;;;;16.24;100.00;99786.00;1742721;82;21018;-69
2022/08/22 03:21:56;;;;;;;21.45;5.55;;;;;;;16.27;100.00;99787.15;1742649;82;21085;-69
2022/08/22 03:24:40;;;;;;;27.22;7.08;;;;;;;16.32;100.00;99789.86;1742864;82;21191;-69
2022/08/22 03:27:14;;;;;;;25.68;6.47;;;;;;;16.40;100.00;99783.19;1742557;82;21009;-69
2022/08/22 03:29:47;;;;;;;22.87;6.42;;;;;;;16.51;100.00;99793.95;1742702;82;21100;-68
2022/08/22 03:32:20;;;;;;;22.82;5.85;;;;;;;16.63;100.00;99793.60;1742180;82;21033;-69
2022/08/22 03:35:02;;;;;;;24.32;6.20;;;;;;;16.74;100.00;99797.23;1742935;82;21073;-68
2022/08/22 03:37:41;;;;;;;34.27;8.50;;;;;;;16.88;100.00;99802.97;1742491;82;21322;-67
2022/08/22 03:40:33;;;;;;;36.85;8.25;;;;;;;17.04;100.00;99802.77;1742637;82;21084;-69
2022/08/22 03:43:38;;;;;;;24.85;6.35;;;;;;;17.17;100.00;99814.77;1740952;82;21045;-67
2022/08/22 03:47:03;;;;;;;25.43;6.20;;;;;;;17.26;100.00;99810.13;1742765;82;21042;-68
2022/08/22 03:50:08;;;;;;;26.95;5.58;;;;;;;17.46;100.00;99817.18;1742334;82;21077;-69
2022/08/22 03:53:25;;;;;;;23.25;5.12;;;;;;;17.75;100.00;99815.95;1742686;82;21718;-70
2022/08/22 03:55:35;;;;;;;25.00;5.15;;;;;;;18.01;100.00;99814.58;1698311;83;21104;-69
2022/08/22 03:58:39;;;;;;;25.05;4.78;;;;;;;18.27;100.00;99823.80;1700416;83;21692;-69
2022/08/22 04:01:48;;;;;;;20.48;4.58;;;;;;;18.51;100.00;99823.32;1712367;83;22158;-69
2022/08/22 04:05:06;;;;;;;23.18;5.22;;;;;;;18.77;100.00;99819.20;1712337;83;21065;-68
2022/08/22 04:07:51;;;;;;;27.22;5.12;;;;;;;19.05;100.00;99825.47;1712183;83;21269;-69
2022/08/22 04:10:26;;;;;;;34.78;5.62;;;;;;;19.37;100.00;99833.27;1660152;83;21029;-68
2022/08/22 04:13:07;;;;;;;26.35;4.95;;;;;;;19.58;100.00;99829.38;1708663;83;21133;-69
2022/08/22 04:16:23;;;;;;;27.75;5.15;;;;;;;19.90;99.27;99830.38;1712457;83;21114;-69
2022/08/22 04:18:58;;;;;;;35.08;4.90;;;;;;;20.17;97.85;99829.09;1713110;83;21073;-70
2022/08/22 04:21:42;;;;;;;26.25;4.70;;;;;;;20.56;94.25;99824.59;1658688;83;21208;-68
2022/08/22 04:24:32;;;;;;;24.67;4.53;;;;;;;20.83;93.42;99815.61;1713009;83;21622;-71
2022/08/22 04:27:17;;;;;;;21.27;4.22;;;;;;;21.24;92.40;99816.58;1713107;83;21057;-71
2022/08/22 04:30:12;;;;;;;20.45;4.37;;;;;;;21.67;89.53;99825.38;1712985;83;21089;-69
2022/08/22 04:33:02;;;;;;;28.45;5.17;;;;;;;22.02;87.95;99829.44;1712611;82;21643;-70
2022/08/22 04:35:37;;;;;;;27.42;4.72;;;;;;;22.30;84.84;99839.42;1713043;83;21185;-69
2022/08/22 04:38:30;;;;;;;32.23;5.62;;;;;;;22.64;79.03;99840.37;1712929;82;21053;-69
2022/08/22 04:41:12;;;;;;;22.15;4.35;;;;;;;22.72;77.50;99837.80;1650599;86;21661;-70
2022/08/22 04:43:47;;;;;;;32.55;5.05;;;;;;;22.91;78.66;99837.44;1702761;83;21049;-70
2022/08/22 04:46:45;;;;;;;24.18;5.05;;;;;;;23.04;74.49;99843.39;1713375;83;21073;-69
2022/08/22 04:49:17;;;;;;;24.27;4.22;;;;;;;23.02;75.04;99849.40;1713114;83;21335;-69
2022/08/22 04:51:52;;;;;;;27.90;5.25;;;;;;;23.04;73.71;99854.13;1712863;83;21060;-69
2022/08/22 04:54:56;;;;;;;32.80;5.20;;;;;;;23.14;73.59;99851.42;1696043;84;21066;-69
2022/08/22 04:58:01;;;;;;;16.85;3.75;;;;;;;23.30;73.54;99852.17;1742655;82;21533;-69
2022/08/22 05:00:43;;;;;;;22.42;4.72;;;;;;;23.60;70.56;99854.64;1742436;82;21089;-69
2022/08/22 05:03:14;;;;;;;19.95;4.17;;;;;;;23.76;71.59;99843.77;1741199;82;21524;-70
2022/08/22 05:05:41;;;;;;;32.88;4.45;;;;;;;24.07;67.11;99839.78;1742291;82;21021;-69
2022/08/22 05:08:12;;;;;;;21.77;4.00;;;;;;;24.24;62.01;99845.33;1742551;82;20998;-69
2022/08/22 05:10:45;;;;;;;25.85;4.92;;;;;;;24.33;61.66;99845.77;1742415;82;21096;-70
2022/08/22 05:13:31;;;;;;;32.45;4.58;;;;;;;24.43;61.93;99847.91;1742851;82;21057;-69
2022/08/22 05:16:04;;;;;;;21.97;4.58;;;;;;;24.70;62.33;99846.16;1742524;82;21822;-70
2022/08/22 05:18:37;;;;;;;25.57;5.70;;;;;;;24.98;60.25;99844.70;1742745;82;21102;-70
2022/08/22 05:21:06;;;;;;;17.55;4.78;;;;;;;25.18;59.93;99836.80;1721559;82;21077;-70
2022/08/22 05:23:43;;;;;;;22.55;4.25;;;;;;;25.35;59.87;99839.59;1742866;82;21089;-70
2022/08/22 05:26:12;;;;;;;26.23;5.40;;;;;;;25.25;58.86;99849.97;1742306;82;21120;-69
2022/08/22 05:28:44;;;;;;;33.40;6.28;;;;;;;24.87;58.86;99853.38;1742300;82;22123;-70
2022/08/22 05:31:25;;;;;;;30.23;7.90;;;;;;;24.51;60.27;99853.89;1742103;81;21127;-70
2022/08/22 05:34:00;;;;;;;41.08;9.68;;;;;;;24.53;60.98;99846.52;1742557;82;21089;-72
2022/08/22 05:36:30;;;;;;;37.70;9.70;;;;;;;24.49;60.51;99850.00;1742273;82;21025;-70
2022/08/22 05:39:01;;;;;;;27.07;8.63;;;;;;;24.22;60.06;99848.67;1742739;82;21097;-70
2022/08/22 05:41:35;;;;;;;39.50;8.58;;;;;;;24.06;60.75;99856.05;1741561;82;21513;-70
2022/08/22 05:44:02;;;;;;;20.62;5.90;;;;;;;23.93;60.43;99855.08;1742857;82;21101;-69
2022/08/22 05:46:39;;;;;;;22.65;4.60;;;;;;;23.76;61.96;99846.45;1742472;82;21013;-71
2022/08/22 05:49:20;;;;;;;24.70;5.03;;;;;;;23.70;61.98;99860.47;1742688;82;21037;-70
2022/08/22 05:52:10;;;;;;;18.30;4.47;;;;;;;23.48;62.92;99857.14;1742347;82;21502;-70
2022/08/22 05:54:45;;;;;;;27.70;4.87;;;;;;;23.35;63.10;99864.66;1742339;82;21473;-70
2022/08/22 05:57:32;;;;;;;27.13;4.05;;;;;;;23.29;58.13;99863.42;1735419;82;21027;-68
2022/08/22 06:00:11;;;;;;;26.07;4.60;;;;;;;23.16;57.78;99869.59;1742889;82;21057;-70
2022/08/22 06:03:05;;;;;;;15.45;3.87;;;;;;;23.15;57.64;99867.41;1742546;82;21050;-70
2022/08/22 06:05:34;;;;;;;19.00;4.08;;;;;;;23.35;58.03;99864.66;1742440;82;21576;-70
2022/08/22 06:08:08;;;;;;;24.20;4.58;;;;;;;24.06;56.92;99847.98;1742541;82;21569;-69
2022/08/22 06:10:46;;;;;;;23.32;4.33;;;;;;;24.89;53.63;99855.42;1741914;82;21132;-70
2022/08/22 06:13:20;;;;;;;21.65;3.87;;;;;;;25.38;51.90;99850.08;1742381;82;21513;-70
2022/08/22 06:16:00;;;;;;;22.65;4.00;;;;;;;25.68;50.40;99843.33;1745990;82;21075;-70
2022/08/22 06:18:26;;;;;;;19.85;4.17;;;;;;;25.93;49.61;99844.31;1747826;82;20966;-69
2022/08/22 06:21:06;;;;;;;24.95;4.28;;;;;;;26.04;48.77;99840.45;1748563;82;21037;-70
2022/08/22 06:23:44;;;;;;;25.48;4.17;;;;;;;26.33;47.78;99841.37;1748310;82;21076;-69
2022/08/22 06:27:25;;;;;;;19.30;4.15;;;;;;;26.64;47.29;99844.81;1814238;79;22578;-71
2022/08/22 06:29:59;;;;;;;24.03;4.77;;;;;;;26.89;46.63;99846.50;1787715;80;21092;-70
2022/08/22 06:32:33;;;;;;;29.92;4.45;;;;;;;27.02;45.11;99853.28;1787078;80;21861;-70
2022/08/22 06:35:06;;;;;;;25.25;4.30;;;;;;;26.73;45.49;99849.21;1786362;80;21036;-69
2022/08/22 06:37:47;;;;;;;31.87;4.67;;;;;;;26.29;47.08;99848.11;1787171;80;21057;-71
2022/08/22 06:40:10;;;;;;;29.45;5.12;;;;;;;26.10;48.09;99851.44;1785184;80;21100;-71
2022/08/22 06:42:41;;;;;;;30.05;4.60;;;;;;;25.90;48.39;99844.61;1787254;80;21012;-70
2022/08/22 06:45:26;;;;;;;23.30;4.53;;;;;;;25.79;49.10;99843.05;1786971;80;21318;-70
2022/08/22 06:48:06;;;;;;;20.88;4.62;;;;;;;26.02;49.18;99844.68;1787378;80;21001;-71
2022/08/22 06:50:38;;;;;;;22.42;4.15;;;;;;;26.53;48.35;99848.67;1787609;80;21534;-69
2022/08/22 06:53:17;;;;;;;24.75;4.15;;;;;;;27.07;47.68;99846.84;1788832;79;26542;-71
2022/08/22 06:55:54;;;;;;;20.68;4.67;;;;;;;27.66;46.33;99837.96;1740290;82;21116;-71
2022/08/22 06:58:37;;;;;;;24.67;4.87;;;;;;;28.11;45.29;99838.30;1770926;81;21086;-72
2022/08/22 07:01:15;;;;;;;26.70;4.58;;;;;;;28.54;45.17;99842.80;1740558;82;22192;-72
2022/08/22 07:03:55;;;;;;;20.60;4.45;;;;;;;28.86;43.77;99836.28;1739032;82;21069;-70
2022/08/22 07:06:33;;;;;;;17.32;4.28;;;;;;;28.86;43.77;99836.28;1728695;82;21046;-70
2022/08/22 07:09:00;;;;;;;19.30;4.37;;;;;;;28.69;44.11;99831.52;1739625;82;21097;-71
2022/08/22 07:11:38;;;;;;;29.48;4.83;;;;;;;28.46;43.10;99830.14;1740324;82;21627;-71
2022/08/22 07:14:11;;;;;;;26.17;4.37;;;;;;;28.09;44.11;99833.08;1740285;82;21101;-71
2022/08/22 07:16:48;;;;;;;35.17;4.60;;;;;;;28.09;44.11;99833.08;1713517;82;21134;-71
2022/08/22 07:19:33;;;;;;;25.52;4.45;;;;;;;27.87;44.83;99827.09;1740345;82;21547;-70
2022/08/22 07:22:23;;;;;;;27.17;4.35;;;;;;;27.71;44.28;99830.16;1739037;82;21582;-71
2022/08/22 07:24:54;;;;;;;26.87;4.83;;;;;;;27.59;45.41;99832.92;1641728;83;21739;-71
2022/08/22 07:28:04;;;;;;;27.00;4.55;;;;;;;27.46;46.23;99833.97;1677526;84;21084;-71
2022/08/22 07:30:48;;;;;;;23.42;3.70;;;;;;;27.56;45.57;99838.66;1741503;82;21070;-69
2022/08/22 07:33:38;;;;;;;18.00;3.50;;;;;;;27.89;45.11;99821.00;1740223;82;21142;-70
2022/08/22 07:36:32;;;;;;;22.55;5.15;;;;;;;28.33;45.10;99820.41;1741385;82;27058;-70
2022/08/22 07:39:28;;;;;;;21.23;4.05;;;;;;;29.11;43.12;99817.13;1740982;82;21102;-69
2022/08/22 07:42:10;;;;;;;27.17;4.75;;;;;;;29.65;41.91;99814.13;1740851;82;21045;-70
2022/08/22 07:44:51;;;;;;;19.60;3.83;;;;;;;30.03;39.05;99811.31;1741201;82;21053;-69
2022/08/22 07:47:19;;;;;;;19.80;3.47;;;;;;;30.14;39.45;99814.89;1740736;82;21042;-71
2022/08/22 07:49:57;;;;;;;27.00;4.62;;;;;;;30.24;38.78;99803.70;1740959;82;21081;-71
2022/08/22 07:52:24;;;;;;;27.65;4.00;;;;;;;30.45;38.00;99811.89;1751491;81;21313;-71
2022/08/22 07:54:56;;;;;;;21.90;4.00;;;;;;;30.64;37.69;99812.27;1745182;81;21073;-72
2022/08/22 07:57:33;;;;;;;25.27;3.85;;;;;;;30.80;37.13;99815.23;1711141;82;21006;-72
2022/08/22 08:00:00;;;;;;;24.55;4.90;;;;;;;30.91;35.53;99813.38;1713499;82;21073;-70
2022/08/22 08:02:26;;;;;;;22.42;3.42;;;;;;;31.02;36.03;99803.33;1740564;81;21132;-71
2022/08/22 08:04:55;;;;;;;18.55;3.67;;;;;;;31.14;35.49;99802.25;1740936;82;21103;-71
2022/08/22 08:07:26;;;;;;;15.53;3.45;;;;;;;31.08;35.86;99799.83;1740507;82;21073;-71
2022/08/22 08:10:04;;;;;;;21.85;3.85;;;;;;;31.19;36.71;99804.38;1740669;82;21041;-71
2022/08/22 08:12:36;;;;;;;25.25;4.30;;;;;;;31.39;36.30;99805.88;1740587;82;21109;-70
2022/08/22 08:15:07;;;;;;;25.20;3.75;;;;;;;31.67;34.80;99807.20;1740947;82;21069;-70
2022/08/22 08:17:34;;;;;;;25.15;3.95;;;;;;;31.84;33.69;99816.72;1740933;82;21243;-70
2022/08/22 08:20:08;;;;;;;22.07;3.90;;;;;;;31.85;34.53;99810.22;1741225;82;21593;-71
2022/08/22 08:22:35;;;;;;;19.75;3.67;;;;;;;31.88;33.24;99816.61;1740814;82;21118;-71
2022/08/22 08:25:02;;;;;;;22.22;3.77;;;;;;;32.04;34.43;99808.63;1740963;82;21061;-70
2022/08/22 08:30:20;;;;;;;22.60;4.47;;;;;;;32.29;33.57;99813.53;1742690;82;21608;-71
2022/08/22 08:32:55;;;;;;;24.20;3.83;;;;;;;32.20;32.91;99810.15;1742497;82;21065;-70
2022/08/22 08:35:26;;;;;;;31.00;3.52;;;;;;;32.12;33.91;99802.19;1742534;82;21070;-71
2022/08/22 08:38:07;;;;;;;20.88;3.65;;;;;;;32.19;33.79;99804.39;1742400;82;21113;-70
2022/08/22 08:40:45;;;;;;;22.50;3.83;;;;;;;32.24;34.18;99808.70;1742790;82;21105;-69
2022/08/22 08:43:49;;;;;;;21.55;4.05;;;;;;;32.24;32.46;99799.16;1710990;82;21195;-70
2022/08/22 08:46:41;;;;;;;22.30;3.58;;;;;;;32.14;33.82;99806.88;1706957;83;21073;-72
2022/08/22 08:49:19;;;;;;;18.98;3.95;;;;;;;32.07;34.45;99808.24;1742521;82;21013;-70
2022/08/22 08:51:57;;;;;;;23.05;3.83;;;;;;;32.30;35.17;99799.71;1742599;82;21578;-70
2022/08/22 08:55:03;;;;;;;32.58;4.15;;;;;;;32.65;33.46;99797.34;1735189;82;21041;-71
2022/08/22 08:57:39;;;;;;;26.42;4.30;;;;;;;32.73;34.38;99800.71;1731827;82;21143;-70
2022/08/22 09:00:15;;;;;;;28.27;3.85;;;;;;;32.84;32.79;99812.05;1731794;82;21563;-69
2022/08/22 09:02:57;;;;;;;28.30;4.00;;;;;;;32.62;33.88;99807.31;1731753;82;21093;-71
2022/08/22 09:06:08;;;;;;;30.88;3.77;;;;;;;32.66;33.67;99805.86;1731751;82;21074;-70
2022/08/22 09:08:59;;;;;;;26.87;3.85;;;;;;;32.81;32.41;99799.16;1732165;82;21152;-69
2022/08/22 09:12:04;;;;;;;33.20;3.92;;;;;;;32.79;31.87;99803.97;1731926;82;21115;-71
2022/08/22 09:15:15;;;;;;;25.02;4.47;;;;;;;32.78;31.12;99802.31;1731929;82;21022;-70
2022/08/22 09:18:05;;;;;;;20.97;3.62;;;;;;;32.94;32.30;99796.92;1731698;82;21561;-70
2022/08/22 09:21:21;;;;;;;36.63;3.80;;;;;;;33.33;30.95;99803.94;1731100;82;21098;-72
2022/08/22 09:24:44;;;;;;;28.85;4.15;;;;;;;33.30;31.47;99801.66;1731644;82;21117;-70
2022/08/22 09:27:36;;;;;;;33.38;4.37;;;;;;;32.97;32.42;99798.42;1731641;82;21262;-69
2022/08/22 09:30:08;;;;;;;33.63;4.60;;;;;;;33.03;30.92;99797.02;1731673;82;21559;-71
2022/08/22 09:32:43;;;;;;;40.23;4.62;;;;;;;32.97;30.45;99803.87;1659215;86;21113;-70
2022/08/22 09:35:42;;;;;;;33.58;4.30;;;;;;;32.88;30.74;99799.69;1732064;82;21542;-70
2022/08/22 09:38:43;;;;;;;36.95;5.00;;;;;;;32.81;31.20;99799.16;1731974;82;21062;-70
2022/08/22 09:41:30;;;;;;;35.35;5.00;;;;;;;32.72;30.53;99800.41;1731700;82;21766;-70
2022/08/22 09:44:08;;;;;;;37.50;4.95;;;;;;;32.83;30.37;99803.05;1731860;82;21041;-69
2022/08/22 09:47:01;;;;;;;37.10;4.42;;;;;;;32.81;30.27;99800.52;1731566;82;21077;-70
2022/08/22 09:49:37;;;;;;;34.50;4.42;;;;;;;32.61;30.94;99809.21;1731783;82;21055;-70
2022/08/22 09:52:09;;;;;;;44.65;5.08;;;;;;;32.48;32.06;99799.61;1732018;82;21097;-70
2022/08/22 09:55:03;;;;;;;45.95;4.72;;;;;;;32.43;31.37;99796.68;1784838;79;21881;-71
2022/08/22 09:57:53;;;;;;;62.25;6.08;;;;;;;32.17;31.69;99787.41;1802979;79;21033;-71
2022/08/22 10:00:46;;;;;;;42.48;5.08;;;;;;;32.02;31.87;99790.82;1803025;79;22061;-70
2022/08/22 10:03:31;;;;;;;46.53;5.83;;;;;;;32.08;32.75;99795.45;1732228;82;21078;-70
2022/08/22 10:06:02;;;;;;;52.05;5.85;;;;;;;32.15;32.21;99789.50;1704719;82;21058;-70
2022/08/22 10:08:49;;;;;;;50.23;6.08;;;;;;;32.35;32.77;99790.39;1774190;79;21222;-71
2022/08/22 10:11:29;;;;;;;51.77;6.25;;;;;;;32.69;32.49;99792.63;1732089;82;21090;-71
2022/08/22 10:14:08;;;;;;;44.13;6.30;;;;;;;32.91;32.15;99789.17;1731390;82;21093;-71
2022/08/22 10:17:02;;;;;;;49.33;6.30;;;;;;;32.95;31.37;99797.26;1732064;82;21085;-71
2022/08/22 10:19:49;;;;;;;51.50;6.20;;;;;;;32.70;32.22;99786.14;1802520;79;21565;-72
2022/08/22 10:22:43;;;;;;;52.70;6.05;;;;;;;32.79;32.18;99788.98;1762135;81;21140;-71
2022/08/22 10:25:24;;;;;;;35.65;5.03;;;;;;;32.98;32.15;99787.81;1796873;79;21022;-70
2022/08/22 10:28:12;;;;;;;50.73;6.78;;;;;;;33.20;32.39;99785.19;1776395;79;21093;-70
2022/08/22 10:31:11;;;;;;;61.30;7.20;;;;;;;33.53;31.63;99781.52;1803147;79;21049;-71
2022/08/22 10:34:10;;;;;;;48.20;5.50;;;;;;;33.73;31.10;99786.95;1708815;79;21153;-70
2022/08/22 10:36:51;;;;;;;;;;;;;;;33.67;31.61;99783.71;1805708;79;21194;-69
2022/08/22 10:39:24;;;;;;;64.75;6.33;;;;;;;33.64;31.36;99789.62;1802597;79;20194;-70
2022/08/22 10:42:20;;;;;;;52.70;7.00;;;;;;;33.71;32.51;99785.50;1731938;82;21062;-71
2022/08/22 10:45:11;;;;;;;60.67;6.85;;;;;;;33.92;31.81;99793.38;1731782;82;21097;-70
2022/08/22 10:47:59;;;;;;;47.30;6.10;;;;;;;33.96;31.58;99788.30;1731660;82;21050;-70
2022/08/22 10:50:45;;;;;;;55.60;6.55;;;;;;;33.98;31.67;99784.82;1732121;82;21185;-71
2022/08/22 10:53:29;;;;;;;63.92;7.60;;;;;;;33.98;31.31;99789.78;1732038;82;21050;-70
2022/08/22 10:56:18;;;;;;;63.13;7.15;;;;;;;33.89;31.69;99791.09;1731662;82;21065;-70
2022/08/22 10:59:02;;;;;;;67.08;7.85;;;;;;;33.97;31.51;99792.19;1640589;82;21662;-70
2022/08/22 11:01:32;;;;;;;69.05;8.90;;;;;;;34.10;30.94;99797.32;1730361;82;21042;-71
2022/08/22 11:04:05;;;;;;;;;;;;;;;34.10;30.82;99789.95;1764819;81;21642;-70
2022/08/22 11:06:41;;;;;;;80.42;9.68;;;;;;;34.14;30.65;99784.37;1713272;83;20174;-70
2022/08/22 11:09:28;;;;;;;101.53;11.30;;;;;;;34.26;30.13;99792.70;1748767;82;21050;-70
2022/08/22 11:12:20;;;;;;;105.87;11.33;;;;;;;34.19;28.01;99792.73;1705053;82;21070;-70
2022/08/22 11:15:19;;;;;;;95.28;11.12;;;;;;;33.89;27.13;99789.72;1803419;79;21050;-70
2022/08/22 11:18:10;;;;;;;122.82;10.90;;;;;;;33.79;27.97;99792.06;1675835;85;21191;-71
2022/08/22 11:21:09;;;;;;;84.72;11.22;;;;;;;33.82;27.61;99788.89;1683342;83;28343;-71
2022/08/22 11:23:45;;;;;;;95.62;10.65;;;;;;;33.28;28.79;99798.30;1729794;82;21034;-71
2022/08/22 11:26:42;;;;;;;105.80;12.58;;;;;;;33.28;28.79;99798.30;1803114;79;21065;-70
2022/08/22 11:29:35;;;;;;;91.63;10.55;;;;;;;33.44;28.04;99797.30;1803110;79;21041;-70
2022/08/22 11:32:16;;;;;;;120.02;12.88;;;;;;;33.41;28.47;99797.73;1803133;79;21563;-71
2022/08/22 11:34:48;;;;;;;125.10;13.65;;;;;;;33.21;28.35;99796.41;1731834;82;21047;-70
2022/08/22 11:37:55;;;;;;;120.02;13.45;;;;;;;33.10;28.80;99787.50;1731458;82;21058;-71
2022/08/22 11:40:50;;;;;;;104.23;13.00;;;;;;;33.22;28.11;99797.23;1731819;82;21053;-71
2022/08/22 11:43:57;;;;;;;96.90;11.22;;;;;;;33.16;28.40;99789.92;1731424;82;21061;-71
2022/08/22 11:46:31;;;;;;;123.82;12.25;;;;;;;32.83;28.24;99795.36;1732129;82;21139;-71
2022/08/22 11:49:17;;;;;;;119.65;11.93;;;;;;;32.53;28.51;99790.31;1802792;79;21697;-69
2022/08/22 11:52:07;;;;;;;102.85;11.85;;;;;;;32.36;29.18;99787.97;1732516;82;21133;-70
2022/08/22 11:55:00;;;;;;;113.47;12.23;;;;;;;32.26;29.57;99792.16;1718001;82;21071;-69
2022/08/22 11:57:41;;;;;;;98.55;11.55;;;;;;;32.14;29.48;99791.89;1778654;80;21056;-70
2022/08/22 12:00:36;;;;;;;116.37;12.55;;;;;;;32.14;29.24;99794.12;1779576;80;21558;-70
2022/08/22 12:03:43;;;;;;;114.67;12.50;;;;;;;32.05;29.61;99790.40;1778887;80;21035;-70
2022/08/22 12:06:26;;;;;;;104.60;11.88;;;;;;;31.96;29.77;99785.16;1779150;80;21012;-70
2022/08/22 12:09:45;;;;;;;108.03;11.88;;;;;;;32.03;30.17;99798.80;1778838;80;21184;-70
2022/08/22 12:12:38;;;;;;;114.97;11.60;;;;;;;32.09;30.15;99797.13;1778747;80;21564;-71
2022/08/22 12:15:51;;;;;;;118.17;12.85;;;;;;;32.18;30.01;99802.70;1779004;80;21589;-71
2022/08/22 12:18:48;;;;;;;110.60;10.80;;;;;;;32.17;30.05;99803.76;1778526;80;21059;-70
2022/08/22 12:21:23;;;;;;;84.40;10.50;;;;;;;32.16;29.76;99797.98;1688324;83;21194;-71
2022/08/22 12:24:10;;;;;;;120.40;11.75;;;;;;;32.09;29.85;99790.31;1654039;86;21120;-69
2022/08/22 12:27:10;;;;;;;94.47;11.50;;;;;;;31.97;30.04;99794.99;1701486;82;21039;-72
2022/08/22 12:29:45;;;;;;;103.70;11.25;;;;;;;31.71;30.28;99799.79;1715161;83;22185;-72
2022/08/22 12:32:43;;;;;;;94.87;9.70;;;;;;;31.46;29.47;99804.06;1714740;83;21665;-71
2022/08/22 12:35:40;;;;;;;103.92;10.88;;;;;;;31.35;28.85;99810.34;1687660;85;21113;-72
2022/08/22 12:38:24;;;;;;;89.77;9.63;;;;;;;31.24;30.16;99805.45;1703050;84;21661;-71
2022/08/22 12:40:58;;;;;;;83.17;9.60;;;;;;;31.27;30.77;99811.04;1702829;84;21039;-70
2022/08/22 12:43:49;;;;;;;117.62;12.68;;;;;;;31.08;31.56;99806.62;1702894;84;22118;-71
2022/08/22 12:46:35;;;;;;;95.53;10.82;;;;;;;30.91;32.36;99809.30;1636188;85;21152;-70
2022/08/22 12:49:28;;;;;;;82.97;10.20;;;;;;;30.84;32.92;99806.53;1714915;83;21645;-70